Titusville, New Jersey
Current Conditions -  °F | °C
As of 2:53 PM on Wednesday 28 Jan 2015 (Local Time) from KTTN Reporting Station
Clear Clear  
Wind Chill: -5°   Ceiling: Unl
Heat Index:   Visibility: 10mi
Dew Point: -14°   Wind: 13mph
Humidity: 34%   Direction: 330°NNW
Pressure: 30.1"   Gusts: 24mph
Location:  40.31°N, 74.88°W
Report Text: KTTN 281953Z 33011G21KT 10SM CLR 00/M14 A3010 RMK AO2 SLP190 T00001144
Loading
Personal Weather Stations






























Interactive Weather Map New forecast layout! Learn more

10-Day Weather Forecast

Advertisements
Track Severe Weather on mobile